Time;durP1;ratioP1;P1;durP2;ratioP2;P2;SDS_P1;SDS_P2;PMS_P1;PMS_P2;Temp;Humidity;BMP_temperature;BMP_pressure;BME280_temperature;BME280_humidity;BME280_pressure;Samples;Min_cycle;Max_cycle;Signal;HPM_P1;HPM_P2
2023/10/17 00:02:10;;;;;;;3.28;2.10;;;;;;;;;;5053359;28;20017;-85
2023/10/17 00:04:51;;;;;;;2.63;1.73;;;;;;;;;;5056411;28;20028;-85
2023/10/17 00:07:16;;;;;;;1.23;1.15;;;;;;;;;;5054400;28;20046;-86
2023/10/17 00:10:41;;;;;;;3.97;1.67;;;;;;;;;;5075051;28;20518;-85
2023/10/17 00:22:36;;;;;;;2.95;1.42;;;;;;;;;;5070722;28;20055;-83
2023/10/17 00:25:09;;;;;;;2.63;1.70;;;;;;;;;;5074377;28;20017;-83
2023/10/17 00:27:54;;;;;;;1.52;1.42;;;;;;;;;;5056820;28;20104;-84
2023/10/17 00:30:21;;;;;;;1.52;1.42;;;;;;;;;;5058578;28;20033;-84
2023/10/17 00:32:50;;;;;;;2.20;2.00;;;;;;;;;;5071442;28;20028;-83
2023/10/17 00:35:18;;;;;;;2.05;1.65;;;;;;;;;;5052822;28;20056;-86
2023/10/17 00:38:19;;;;;;;1.30;1.20;;;;;;;;;;5075732;28;20246;-85
2023/10/17 00:40:47;;;;;;;1.50;1.40;;;;;;;;;;5055961;28;20028;-84
2023/10/17 00:43:13;;;;;;;1.88;1.65;;;;;;;;;;5058499;28;20107;-83
2023/10/17 00:45:39;;;;;;;2.20;1.90;;;;;;;;;;5074861;28;20060;-83
2023/10/17 00:48:17;;;;;;;3.95;1.98;;;;;;;;;;5076046;28;20422;-84
2023/10/17 00:50:45;;;;;;;1.50;1.40;;;;;;;;;;5091312;28;20017;-86
2023/10/17 00:53:11;;;;;;;1.92;1.73;;;;;;;;;;5088314;28;20035;-83
2023/10/17 00:55:38;;;;;;;2.72;1.98;;;;;;;;;;5093199;28;20209;-83
2023/10/17 00:58:06;;;;;;;2.25;1.70;;;;;;;;;;5061449;28;20013;-83
2023/10/17 01:00:39;;;;;;;2.38;1.80;;;;;;;;;;5060275;28;20040;-83
2023/10/17 01:03:10;;;;;;;2.45;1.73;;;;;;;;;;5056355;28;20013;-85
2023/10/17 01:06:34;;;;;;;2.40;1.88;;;;;;;;;;5054377;28;20020;-84
2023/10/17 01:09:07;;;;;;;1.58;1.45;;;;;;;;;;5050747;28;20029;-85
2023/10/17 01:11:38;;;;;;;1.63;1.50;;;;;;;;;;5053310;28;20422;-84
2023/10/17 01:14:04;;;;;;;2.08;1.92;;;;;;;;;;5073714;28;20020;-84
2023/10/17 01:16:34;;;;;;;2.83;2.03;;;;;;;;;;5056403;28;20054;-85
2023/10/17 01:19:05;;;;;;;1.40;1.30;;;;;;;;;;5073947;28;20611;-85
2023/10/17 01:21:30;;;;;;;1.85;1.67;;;;;;;;;;5074941;28;20020;-84
2023/10/17 01:23:56;;;;;;;1.92;1.60;;;;;;;;;;5074003;28;20554;-83
2023/10/17 01:26:23;;;;;;;1.65;1.55;;;;;;;;;;5056844;28;20090;-85
2023/10/17 01:28:50;;;;;;;1.45;1.35;;;;;;;;;;5061226;28;20043;-87
2023/10/17 01:31:22;;;;;;;2.63;1.50;;;;;;;;;;5058479;28;20115;-86
2023/10/17 01:33:49;;;;;;;2.28;1.90;;;;;;;;;;5065520;28;20021;-85
2023/10/17 01:36:16;;;;;;;1.60;1.50;;;;;;;;;;5089300;28;20084;-84
2023/10/17 01:38:42;;;;;;;2.88;1.90;;;;;;;;;;5082428;28;20025;-85
2023/10/17 01:41:10;;;;;;;1.30;1.27;;;;;;;;;;5067762;28;20028;-85
2023/10/17 01:43:40;;;;;;;1.98;1.77;;;;;;;;;;5074311;28;20546;-84
2023/10/17 01:46:11;;;;;;;1.80;1.70;;;;;;;;;;5058107;28;20121;-84
2023/10/17 01:48:37;;;;;;;1.88;1.75;;;;;;;;;;5088648;28;20017;-84
2023/10/17 01:51:06;;;;;;;2.03;1.70;;;;;;;;;;5073044;28;20086;-87
2023/10/17 01:53:38;;;;;;;1.95;1.85;;;;;;;;;;5064099;28;20028;-86
2023/10/17 01:56:13;;;;;;;;;;;;;;;;;;5058884;28;20024;-87
2023/10/17 01:58:42;;;;;;;1.75;1.20;;;;;;;;;;5090049;28;19965;-83
2023/10/17 02:01:13;;;;;;;1.20;1.13;;;;;;;;;;5074254;28;20035;-83
2023/10/17 02:03:39;;;;;;;3.80;1.77;;;;;;;;;;5081709;28;20021;-85
2023/10/17 02:06:14;;;;;;;1.50;1.40;;;;;;;;;;5076341;28;20028;-85
2023/10/17 02:08:41;;;;;;;1.20;1.15;;;;;;;;;;5079141;28;20043;-85
2023/10/17 02:11:11;;;;;;;3.65;2.20;;;;;;;;;;5058490;28;20544;-83
2023/10/17 02:13:37;;;;;;;1.48;1.23;;;;;;;;;;5058110;28;20024;-82
2023/10/17 02:16:06;;;;;;;2.83;1.73;;;;;;;;;;5058128;28;20029;-85
2023/10/17 02:18:32;;;;;;;2.17;1.95;;;;;;;;;;5060350;28;20172;-85
2023/10/17 02:21:04;;;;;;;1.25;1.15;;;;;;;;;;5063283;28;20028;-82
2023/10/17 02:23:34;;;;;;;1.75;1.10;;;;;;;;;;5073428;28;20020;-85
2023/10/17 02:26:00;;;;;;;1.55;1.45;;;;;;;;;;5069938;28;20099;-86
2023/10/17 02:28:25;;;;;;;1.92;1.70;;;;;;;;;;5059644;28;20035;-84
2023/10/17 02:30:51;;;;;;;1.95;1.27;;;;;;;;;;5059017;28;20052;-86
2023/10/17 02:33:19;;;;;;;1.55;1.35;;;;;;;;;;5061227;28;20027;-85
2023/10/17 02:36:04;;;;;;;1.10;1.08;;;;;;;;;;5057790;28;20035;-84
2023/10/17 02:38:29;;;;;;;1.45;1.23;;;;;;;;;;5046797;28;20544;-86
2023/10/17 02:40:55;;;;;;;2.70;2.05;;;;;;;;;;5060124;28;20538;-85
2023/10/17 02:43:20;;;;;;;1.77;1.67;;;;;;;;;;5077709;28;20024;-86
2023/10/17 02:45:45;;;;;;;1.30;0.95;;;;;;;;;;5059684;28;20115;-86
2023/10/17 02:48:23;;;;;;;2.53;1.55;;;;;;;;;;5060053;28;20016;-86
2023/10/17 02:51:01;;;;;;;2.25;1.20;;;;;;;;;;5057026;28;20024;-84
2023/10/17 02:53:31;;;;;;;1.67;1.58;;;;;;;;;;5060328;28;20517;-86
2023/10/17 02:55:57;;;;;;;2.05;1.73;;;;;;;;;;5060404;28;20052;-85
2023/10/17 02:58:23;;;;;;;6.70;2.10;;;;;;;;;;5079420;28;20025;-86
2023/10/17 03:00:48;;;;;;;3.10;1.50;;;;;;;;;;5058823;28;20466;-85
2023/10/17 03:03:14;;;;;;;1.63;1.52;;;;;;;;;;5058217;28;20032;-85
2023/10/17 03:05:50;;;;;;;1.17;1.13;;;;;;;;;;5075578;28;20028;-85
2023/10/17 03:08:17;;;;;;;1.90;1.75;;;;;;;;;;5049118;28;20028;-83
2023/10/17 03:10:43;;;;;;;1.45;1.35;;;;;;;;;;5056351;28;20518;-85
2023/10/17 03:13:23;;;;;;;2.00;1.85;;;;;;;;;;5075265;28;20029;-85
2023/10/17 03:16:13;;;;;;;3.10;0.82;;;;;;;;;;5055389;28;20025;-83
2023/10/17 03:18:39;;;;;;;1.35;1.25;;;;;;;;;;5057240;28;20062;-84
2023/10/17 03:21:08;;;;;;;5.35;1.60;;;;;;;;;;5075543;28;20024;-85
2023/10/17 03:23:34;;;;;;;1.60;1.50;;;;;;;;;;5057195;28;20017;-84
2023/10/17 03:26:02;;;;;;;2.65;2.38;;;;;;;;;;5066001;28;20037;-84
2023/10/17 03:28:29;;;;;;;2.28;1.98;;;;;;;;;;5056593;28;20021;-85
2023/10/17 03:30:54;;;;;;;2.08;1.83;;;;;;;;;;5076181;28;20100;-85
2023/10/17 03:33:26;;;;;;;1.50;1.40;;;;;;;;;;5078142;28;20053;-84
2023/10/17 03:38:48;;;;;;;1.83;1.67;;;;;;;;;;5036217;28;20062;-85
2023/10/17 03:41:17;;;;;;;1.60;1.50;;;;;;;;;;5068641;28;20020;-84
2023/10/17 03:43:52;;;;;;;4.30;2.33;;;;;;;;;;5056734;28;20039;-84
2023/10/17 03:46:18;;;;;;;1.50;1.40;;;;;;;;;;5054480;28;20397;-87
2023/10/17 03:48:50;;;;;;;1.92;1.73;;;;;;;;;;5057456;28;20103;-84
2023/10/17 03:51:24;;;;;;;2.35;1.77;;;;;;;;;;5055514;28;20047;-84
2023/10/17 03:53:50;;;;;;;7.78;2.20;;;;;;;;;;5075696;28;20137;-87
2023/10/17 03:56:24;;;;;;;2.17;1.85;;;;;;;;;;5057381;28;20024;-85
2023/10/17 03:58:57;;;;;;;2.10;1.90;;;;;;;;;;5056364;28;20517;-83
2023/10/17 04:01:23;;;;;;;2.33;2.00;;;;;;;;;;5058049;28;20102;-84
2023/10/17 04:03:53;;;;;;;2.35;2.13;;;;;;;;;;5057644;28;20398;-84
2023/10/17 04:06:38;;;;;;;3.20;1.80;;;;;;;;;;5056926;28;20032;-85
2023/10/17 04:11:58;;;;;;;1.60;1.50;;;;;;;;;;5076546;28;20030;-83
2023/10/17 04:14:33;;;;;;;2.42;1.90;;;;;;;;;;5076323;28;20024;-86
2023/10/17 04:16:59;;;;;;;1.40;1.33;;;;;;;;;;5058272;28;20031;-85
2023/10/17 04:19:29;;;;;;;1.65;1.55;;;;;;;;;;5064957;28;20394;-84
2023/10/17 04:24:35;;;;;;;1.92;1.58;;;;;;;;;;5078246;28;20036;-84
2023/10/17 04:29:43;;;;;;;3.92;2.80;;;;;;;;;;5070292;28;20201;-85
2023/10/17 04:32:14;;;;;;;2.33;1.60;;;;;;;;;;5067639;28;20036;-83
2023/10/17 04:34:46;;;;;;;1.77;1.65;;;;;;;;;;5069949;28;20036;-84
2023/10/17 04:37:31;;;;;;;2.97;2.15;;;;;;;;;;5077414;28;20047;-85
2023/10/17 04:39:57;;;;;;;2.58;2.20;;;;;;;;;;5059316;28;20036;-84
2023/10/17 04:42:47;;;;;;;2.17;1.90;;;;;;;;;;5056073;28;20026;-84
2023/10/17 04:45:14;;;;;;;1.58;1.48;;;;;;;;;;5073349;28;20392;-85
2023/10/17 04:47:43;;;;;;;3.78;2.05;;;;;;;;;;5052923;28;20020;-85
2023/10/17 04:50:11;;;;;;;1.80;1.60;;;;;;;;;;5073390;28;20116;-86
2023/10/17 04:52:46;;;;;;;2.03;1.23;;;;;;;;;;5072873;28;20033;-84
2023/10/17 04:55:18;;;;;;;1.77;1.63;;;;;;;;;;5055809;28;20020;-85
2023/10/17 05:03:14;;;;;;;1.67;1.58;;;;;;;;;;5065733;28;20055;-85
2023/10/17 05:09:00;;;;;;;1.70;1.60;;;;;;;;;;5072350;28;20070;-85
2023/10/17 06:17:21;;;;;;;2.47;1.83;;;;;;;;;;5080771;28;20100;-86
2023/10/17 06:19:48;;;;;;;3.90;1.70;;;;;;;;;;5081278;28;20055;-87
2023/10/17 06:32:48;;;;;;;5.05;1.35;;;;;;;;;;5071808;28;20047;-87
2023/10/17 06:35:13;;;;;;;2.08;1.88;;;;;;;;;;5072104;28;20114;-88
2023/10/17 06:37:42;;;;;;;1.80;1.70;;;;;;;;;;5057438;28;20028;-86
2023/10/17 06:40:15;;;;;;;5.20;2.22;;;;;;;;;;5074590;28;20048;-86
2023/10/17 06:42:48;;;;;;;1.92;1.75;;;;;;;;;;5073491;28;20028;-87
2023/10/17 06:45:18;;;;;;;2.58;1.60;;;;;;;;;;5073351;28;20046;-87
2023/10/17 06:47:47;;;;;;;1.40;1.30;;;;;;;;;;5075431;28;20105;-87
2023/10/17 06:52:40;;;;;;;2.55;2.05;;;;;;;;;;5075099;28;20037;-88
2023/10/17 06:55:07;;;;;;;2.35;2.00;;;;;;;;;;5057155;28;20490;-86
2023/10/17 06:57:35;;;;;;;3.50;2.13;;;;;;;;;;5056926;28;20020;-86
2023/10/17 07:00:16;;;;;;;1.98;1.60;;;;;;;;;;5056532;28;20032;-85
2023/10/17 07:02:48;;;;;;;4.88;2.10;;;;;;;;;;5062364;28;20112;-85
2023/10/17 07:05:14;;;;;;;;;;;;;;;;;;5078079;28;20070;-88
2023/10/17 07:07:41;;;;;;;4.80;2.47;;;;;;;;;;5060606;28;19923;-88
2023/10/17 07:10:16;;;;;;;3.92;2.03;;;;;;;;;;5062744;28;20083;-87
2023/10/17 07:12:47;;;;;;;6.28;2.45;;;;;;;;;;5088481;28;20024;-87
2023/10/17 07:15:18;;;;;;;4.00;2.05;;;;;;;;;;5070956;28;20048;-87
2023/10/17 07:17:49;;;;;;;2.67;2.05;;;;;;;;;;5077561;28;20029;-86
2023/10/17 07:21:15;;;;;;;4.72;2.40;;;;;;;;;;5058545;28;20405;-88
2023/10/17 07:23:11;;;;;;;4.47;2.15;;;;;;;;;;5076366;28;20028;-88
2023/10/17 07:25:38;;;;;;;2.22;2.00;;;;;;;;;;5058146;28;20024;-88
2023/10/17 07:28:04;;;;;;;3.55;2.17;;;;;;;;;;5058207;28;20021;-87
2023/10/17 07:30:35;;;;;;;2.50;1.80;;;;;;;;;;5068705;28;20167;-88
2023/10/17 07:33:04;;;;;;;4.10;2.67;;;;;;;;;;5058118;28;20028;-87
2023/10/17 07:35:36;;;;;;;2.92;2.10;;;;;;;;;;5056924;28;20108;-88
2023/10/17 07:38:03;;;;;;;2.15;1.85;;;;;;;;;;5053939;28;20112;-87
2023/10/17 07:40:33;;;;;;;5.68;3.13;;;;;;;;;;5059417;28;20024;-89
2023/10/17 07:43:02;;;;;;;3.25;2.38;;;;;;;;;;5076077;28;20020;-88
2023/10/17 07:45:38;;;;;;;2.53;2.08;;;;;;;;;;5075289;28;20595;-88
2023/10/17 07:48:19;;;;;;;5.68;2.20;;;;;;;;;;5057672;28;20027;-88
2023/10/17 07:50:46;;;;;;;4.80;2.63;;;;;;;;;;5052305;28;20025;-88
2023/10/17 07:53:19;;;;;;;2.85;2.33;;;;;;;;;;5056585;28;20036;-88
2023/10/17 07:55:48;;;;;;;3.58;2.63;;;;;;;;;;5075851;28;20078;-87
2023/10/17 07:58:17;;;;;;;2.80;2.35;;;;;;;;;;5076356;28;20028;-88
2023/10/17 08:00:44;;;;;;;3.25;2.33;;;;;;;;;;5054206;28;20724;-87
2023/10/17 08:03:17;;;;;;;2.42;2.08;;;;;;;;;;5056798;28;20031;-88
2023/10/17 08:08:33;;;;;;;7.07;2.03;;;;;;;;;;5072330;28;20070;-86
2023/10/17 08:11:07;;;;;;;3.88;2.92;;;;;;;;;;5055221;28;20044;-87
2023/10/17 08:13:32;;;;;;;3.35;2.42;;;;;;;;;;5069932;28;20115;-87
2023/10/17 08:16:32;;;;;;;4.25;2.42;;;;;;;;;;5054746;28;20115;-86
2023/10/17 08:19:13;;;;;;;3.85;2.63;;;;;;;;;;5046453;28;20028;-87
2023/10/17 08:24:57;;;;;;;4.65;2.90;;;;;;;;;;5072010;28;20027;-86
2023/10/17 08:27:19;;;;;;;5.18;2.28;;;;;;;;;;5068203;28;20086;-87
2023/10/17 08:30:34;;;;;;;3.33;2.00;;;;;;;;;;5055161;28;20024;-85
2023/10/17 08:32:47;;;;;;;3.45;2.67;;;;;;;;;;5060014;28;20033;-88
2023/10/17 08:37:43;;;;;;;4.35;2.55;;;;;;;;;;5072151;28;20067;-87
2023/10/17 08:42:56;;;;;;;2.83;2.15;;;;;;;;;;5071788;28;20112;-87
2023/10/17 08:45:26;;;;;;;3.22;2.70;;;;;;;;;;5071984;28;20036;-86
2023/10/17 08:48:00;;;;;;;5.22;2.55;;;;;;;;;;5053411;28;20123;-86
2023/10/17 08:50:26;;;;;;;4.28;2.15;;;;;;;;;;5053857;28;20063;-86
2023/10/17 08:52:53;;;;;;;3.50;2.42;;;;;;;;;;5070796;28;20052;-87
2023/10/17 08:55:21;;;;;;;8.82;2.92;;;;;;;;;;5070817;28;20036;-86
2023/10/17 08:57:46;;;;;;;4.25;2.63;;;;;;;;;;5059915;28;20025;-87
2023/10/17 09:02:43;;;;;;;5.32;3.15;;;;;;;;;;5071641;28;20107;-86
2023/10/17 09:05:17;;;;;;;4.20;2.97;;;;;;;;;;5061856;28;20031;-86
2023/10/17 09:07:45;;;;;;;5.72;3.28;;;;;;;;;;5046146;28;20032;-86
2023/10/17 09:10:28;;;;;;;6.32;3.25;;;;;;;;;;5053065;28;20157;-86
2023/10/17 09:16:08;;;;;;;2.90;2.50;;;;;;;;;;5066297;28;20143;-86
2023/10/17 09:18:40;;;;;;;5.90;3.17;;;;;;;;;;5070814;28;20100;-87
2023/10/17 09:21:06;;;;;;;3.25;2.65;;;;;;;;;;5053392;28;20055;-87
2023/10/17 09:23:32;;;;;;;6.22;2.60;;;;;;;;;;5053215;28;20435;-87
2023/10/17 09:26:00;;;;;;;3.38;2.88;;;;;;;;;;5066660;28;20141;-86
2023/10/17 09:28:28;;;;;;;4.80;3.40;;;;;;;;;;5071574;28;20055;-87
2023/10/17 09:31:06;;;;;;;6.97;3.55;;;;;;;;;;5068731;28;20031;-87
2023/10/17 09:33:43;;;;;;;6.07;2.83;;;;;;;;;;5052189;28;20032;-88
2023/10/17 09:36:09;;;;;;;5.13;3.08;;;;;;;;;;5067737;28;20032;-88
2023/10/17 09:38:41;;;;;;;6.88;3.55;;;;;;;;;;5067855;28;20035;-87
2023/10/17 09:41:08;;;;;;;5.25;3.22;;;;;;;;;;5049854;28;20021;-87
2023/10/17 09:43:36;;;;;;;6.82;3.22;;;;;;;;;;5068608;28;20402;-86
2023/10/17 09:46:03;;;;;;;7.10;3.88;;;;;;;;;;5049220;28;20028;-87
2023/10/17 09:48:36;;;;;;;6.28;3.47;;;;;;;;;;5063532;28;20092;-87
2023/10/17 09:51:03;;;;;;;5.05;3.40;;;;;;;;;;5080822;28;20031;-87
2023/10/17 09:53:33;;;;;;;4.60;3.28;;;;;;;;;;5068291;28;20592;-87
2023/10/17 09:56:03;;;;;;;3.67;3.17;;;;;;;;;;5045878;28;20031;-87
2023/10/17 09:58:33;;;;;;;4.53;3.17;;;;;;;;;;5049832;28;20020;-86
2023/10/17 10:01:05;;;;;;;10.35;3.40;;;;;;;;;;5047835;28;20085;-88
2023/10/17 10:03:33;;;;;;;5.05;3.35;;;;;;;;;;5054403;28;20478;-86
2023/10/17 10:06:30;;;;;;;5.38;3.20;;;;;;;;;;5064961;28;20031;-87
2023/10/17 10:09:17;;;;;;;10.35;4.13;;;;;;;;;;5061920;28;20023;-87
2023/10/17 10:11:48;;;;;;;7.70;3.38;;;;;;;;;;5072172;28;20031;-87
2023/10/17 10:14:15;;;;;;;6.97;4.03;;;;;;;;;;5059819;28;20060;-87
2023/10/17 10:16:47;;;;;;;6.95;4.32;;;;;;;;;;5056862;28;20020;-88
2023/10/17 10:19:14;;;;;;;7.57;4.07;;;;;;;;;;5060443;28;20161;-87
2023/10/17 10:21:58;;;;;;;5.20;3.35;;;;;;;;;;5071210;28;20025;-87
2023/10/17 10:24:26;;;;;;;5.43;3.22;;;;;;;;;;5057555;28;20417;-86
2023/10/17 10:27:15;;;;;;;11.00;4.55;;;;;;;;;;5075420;28;20028;-87
2023/10/17 10:29:45;;;;;;;7.22;4.10;;;;;;;;;;5042207;28;20036;-87
2023/10/17 10:32:43;;;;;;;7.03;4.05;;;;;;;;;;5055613;28;20062;-87
2023/10/17 10:35:11;;;;;;;10.60;4.00;;;;;;;;;;5052389;28;20039;-86
2023/10/17 10:37:59;;;;;;;6.75;3.70;;;;;;;;;;5074807;28;20025;-87
2023/10/17 10:40:32;;;;;;;6.35;3.83;;;;;;;;;;5075357;28;20069;-87
2023/10/17 10:43:01;;;;;;;6.70;4.13;;;;;;;;;;5070786;28;20115;-87
2023/10/17 10:45:36;;;;;;;6.03;3.60;;;;;;;;;;5058804;28;20030;-87
2023/10/17 10:48:04;;;;;;;4.95;3.40;;;;;;;;;;5055790;28;20635;-86
2023/10/17 10:50:33;;;;;;;6.85;4.15;;;;;;;;;;5056093;28;20028;-87
2023/10/17 10:53:17;;;;;;;7.78;4.20;;;;;;;;;;5077582;28;20025;-88
2023/10/17 10:55:42;;;;;;;8.23;4.13;;;;;;;;;;5058718;28;20478;-88
2023/10/17 10:58:10;;;;;;;6.82;4.10;;;;;;;;;;5077911;28;20024;-88
2023/10/17 11:00:37;;;;;;;7.25;4.10;;;;;;;;;;5057963;28;20020;-87
2023/10/17 11:03:06;;;;;;;8.63;4.22;;;;;;;;;;5056385;28;20021;-88
2023/10/17 11:05:33;;;;;;;7.18;4.43;;;;;;;;;;5067579;28;20024;-87
2023/10/17 11:08:00;;;;;;;9.05;4.03;;;;;;;;;;5058292;28;20054;-88
2023/10/17 11:10:25;;;;;;;6.60;4.35;;;;;;;;;;5075887;28;20032;-87
2023/10/17 11:12:53;;;;;;;6.60;4.07;;;;;;;;;;5077528;28;20021;-88
2023/10/17 11:15:21;;;;;;;5.60;3.60;;;;;;;;;;5083101;28;20028;-88
2023/10/17 11:17:47;;;;;;;6.20;3.72;;;;;;;;;;5091749;28;20024;-88
2023/10/17 11:20:19;;;;;;;8.57;4.40;;;;;;;;;;5080195;28;20033;-87
2023/10/17 11:22:46;;;;;;;6.43;4.45;;;;;;;;;;5098738;28;20008;-87
2023/10/17 11:25:13;;;;;;;5.78;3.97;;;;;;;;;;5066747;28;20032;-87
2023/10/17 11:28:16;;;;;;;8.63;4.30;;;;;;;;;;5058151;28;20043;-87
2023/10/17 11:30:40;;;;;;;6.32;3.50;;;;;;;;;;5091362;28;20044;-86
2023/10/17 11:33:28;;;;;;;6.68;4.03;;;;;;;;;;5060715;28;20069;-88
2023/10/17 11:35:54;;;;;;;5.72;3.80;;;;;;;;;;5059682;28;20433;-88
2023/10/17 11:38:37;;;;;;;8.18;3.80;;;;;;;;;;5082052;28;20466;-88
2023/10/17 11:41:04;;;;;;;6.55;3.92;;;;;;;;;;5062370;28;20028;-86
2023/10/17 11:43:42;;;;;;;7.35;3.20;;;;;;;;;;5078620;28;20012;-87
2023/10/17 11:46:12;;;;;;;8.10;4.30;;;;;;;;;;5063909;28;20059;-86
2023/10/17 11:48:44;;;;;;;6.25;3.55;;;;;;;;;;5060960;28;20031;-88
2023/10/17 11:51:17;;;;;;;8.38;4.38;;;;;;;;;;5082773;28;20021;-85
2023/10/17 11:54:05;;;;;;;10.30;3.85;;;;;;;;;;5081503;28;20082;-87
2023/10/17 11:56:39;;;;;;;5.82;3.78;;;;;;;;;;5063436;28;20024;-86
2023/10/17 11:59:10;;;;;;;7.22;4.25;;;;;;;;;;5082672;28;20017;-83
2023/10/17 12:01:36;;;;;;;5.43;3.88;;;;;;;;;;5060961;28;20023;-84
2023/10/17 12:04:08;;;;;;;5.65;3.70;;;;;;;;;;5063060;28;20024;-87
2023/10/17 12:06:34;;;;;;;6.15;3.80;;;;;;;;;;5078008;28;20107;-89
2023/10/17 12:09:23;;;;;;;6.68;4.03;;;;;;;;;;5079227;28;20049;-87
2023/10/17 12:11:52;;;;;;;9.30;3.97;;;;;;;;;;5076003;28;20036;-87
2023/10/17 12:14:21;;;;;;;7.75;4.20;;;;;;;;;;5077483;28;20029;-87
2023/10/17 12:16:53;;;;;;;7.80;4.18;;;;;;;;;;5078798;28;20032;-88
2023/10/17 12:19:19;;;;;;;6.15;3.75;;;;;;;;;;5056636;28;20034;-86
2023/10/17 12:21:48;;;;;;;5.80;3.75;;;;;;;;;;5075939;28;20050;-86
2023/10/17 12:24:28;;;;;;;5.93;3.90;;;;;;;;;;5088183;28;20031;-88
2023/10/17 12:26:56;;;;;;;6.07;4.15;;;;;;;;;;5082707;28;20028;-88
2023/10/17 12:29:32;;;;;;;6.32;3.72;;;;;;;;;;5055966;28;20508;-88
2023/10/17 12:31:59;;;;;;;9.45;4.50;;;;;;;;;;5057260;28;20043;-88
2023/10/17 12:34:25;;;;;;;5.13;3.60;;;;;;;;;;5063930;28;20127;-87
2023/10/17 12:36:50;;;;;;;5.22;3.78;;;;;;;;;;5058480;28;20044;-87
2023/10/17 12:39:19;;;;;;;4.47;3.40;;;;;;;;;;5060357;28;20031;-87
2023/10/17 12:41:49;;;;;;;5.80;3.60;;;;;;;;;;5071144;28;20032;-87
2023/10/17 12:44:20;;;;;;;4.28;3.25;;;;;;;;;;5076693;28;20390;-88
2023/10/17 12:46:46;;;;;;;5.93;3.92;;;;;;;;;;5057052;28;20097;-87
2023/10/17 12:49:12;;;;;;;4.78;3.08;;;;;;;;;;5059784;28;20028;-87
2023/10/17 12:51:38;;;;;;;7.05;3.53;;;;;;;;;;5075951;28;20021;-88
2023/10/17 12:54:06;;;;;;;7.10;4.03;;;;;;;;;;5075003;28;20033;-87
2023/10/17 12:56:31;;;;;;;7.03;3.85;;;;;;;;;;5060862;28;20024;-87
2023/10/17 12:58:56;;;;;;;9.57;3.97;;;;;;;;;;5074354;28;20027;-89
2023/10/17 13:01:24;;;;;;;4.70;3.67;;;;;;;;;;5073643;28;20025;-87
2023/10/17 13:03:53;;;;;;;5.40;3.60;;;;;;;;;;5077614;28;20084;-88
2023/10/17 13:06:20;;;;;;;5.20;3.28;;;;;;;;;;5077039;28;20050;-87
2023/10/17 13:08:48;;;;;;;6.10;3.55;;;;;;;;;;5073466;28;20024;-88
2023/10/17 13:11:19;;;;;;;4.53;3.42;;;;;;;;;;5059277;28;20042;-88
2023/10/17 13:13:44;;;;;;;7.93;3.80;;;;;;;;;;5058071;28;20063;-88
2023/10/17 13:16:10;;;;;;;5.47;3.40;;;;;;;;;;5078557;28;20016;-87
2023/10/17 13:18:40;;;;;;;5.30;3.53;;;;;;;;;;5081574;28;20044;-87
2023/10/17 13:21:25;;;;;;;5.30;3.20;;;;;;;;;;5080174;28;20031;-86
2023/10/17 13:23:50;;;;;;;5.35;3.33;;;;;;;;;;5082208;28;20032;-87
2023/10/17 13:26:19;;;;;;;5.28;3.60;;;;;;;;;;5064200;28;20088;-87
2023/10/17 13:28:44;;;;;;;5.93;3.55;;;;;;;;;;5080660;28;20017;-85
2023/10/17 13:31:10;;;;;;;12.68;3.67;;;;;;;;;;5067515;28;20043;-87
2023/10/17 13:33:36;;;;;;;7.63;4.00;;;;;;;;;;5058646;28;20449;-88
2023/10/17 13:36:02;;;;;;;5.85;3.67;;;;;;;;;;5061774;28;20044;-85
2023/10/17 13:38:27;;;;;;;4.43;3.28;;;;;;;;;;5059650;28;20025;-87
2023/10/17 13:41:02;;;;;;;7.18;3.90;;;;;;;;;;5080373;28;20036;-86
2023/10/17 13:43:27;;;;;;;5.25;3.35;;;;;;;;;;5082366;28;20043;-86
2023/10/17 13:45:52;;;;;;;7.00;3.50;;;;;;;;;;5063151;28;21287;-87
2023/10/17 13:48:18;;;;;;;7.90;3.88;;;;;;;;;;5063255;28;20544;-87
2023/10/17 13:50:43;;;;;;;4.82;3.17;;;;;;;;;;5064684;28;20029;-86
2023/10/17 13:53:10;;;;;;;6.05;3.28;;;;;;;;;;5087012;28;20020;-86
2023/10/17 13:55:38;;;;;;;4.93;3.50;;;;;;;;;;5069087;28;20028;-88
2023/10/17 13:58:04;;;;;;;4.13;3.15;;;;;;;;;;5081090;28;20031;-86
2023/10/17 14:00:43;;;;;;;4.93;3.85;;;;;;;;;;5082647;28;20016;-87
2023/10/17 14:03:12;;;;;;;5.50;3.25;;;;;;;;;;5051584;28;20020;-86
2023/10/17 14:05:47;;;;;;;5.57;3.70;;;;;;;;;;5080904;28;20016;-87
2023/10/17 14:08:14;;;;;;;8.52;4.32;;;;;;;;;;5057480;28;20437;-87
2023/10/17 14:10:43;;;;;;;4.85;3.55;;;;;;;;;;5061218;28;20063;-88
2023/10/17 14:13:08;;;;;;;4.97;3.50;;;;;;;;;;5070571;28;20031;-85
2023/10/17 14:15:35;;;;;;;7.53;3.92;;;;;;;;;;5055466;28;20013;-86
2023/10/17 14:18:09;;;;;;;6.82;3.72;;;;;;;;;;5054264;28;20029;-87
2023/10/17 14:21:04;;;;;;;9.20;3.80;;;;;;;;;;5078879;28;20028;-85
2023/10/17 14:23:26;;;;;;;5.10;3.50;;;;;;;;;;5072084;28;20157;-86
2023/10/17 14:26:03;;;;;;;6.72;3.05;;;;;;;;;;5078080;28;20032;-86
2023/10/17 14:28:29;;;;;;;6.82;3.45;;;;;;;;;;5058643;28;20028;-87
2023/10/17 14:30:54;;;;;;;4.97;3.30;;;;;;;;;;5061567;28;20089;-86
2023/10/17 14:33:20;;;;;;;6.10;3.20;;;;;;;;;;5080102;28;20025;-85
2023/10/17 14:35:48;;;;;;;5.32;3.33;;;;;;;;;;5061993;28;20096;-85
2023/10/17 14:38:14;;;;;;;5.60;3.00;;;;;;;;;;5060016;28;20056;-86
2023/10/17 14:40:41;;;;;;;5.63;3.33;;;;;;;;;;5056718;28;20031;-84
2023/10/17 14:43:12;;;;;;;7.55;3.78;;;;;;;;;;5078920;28;20016;-86
2023/10/17 14:45:41;;;;;;;9.57;4.15;;;;;;;;;;5065225;28;20017;-86
2023/10/17 14:48:13;;;;;;;5.97;3.80;;;;;;;;;;5054843;28;20056;-86
2023/10/17 14:50:39;;;;;;;4.25;3.40;;;;;;;;;;5059790;28;20052;-86
2023/10/17 14:53:05;;;;;;;4.72;3.50;;;;;;;;;;5059431;28;20032;-86
2023/10/17 14:55:31;;;;;;;8.75;3.58;;;;;;;;;;5078990;28;20455;-86
2023/10/17 14:57:57;;;;;;;4.40;2.75;;;;;;;;;;5072140;28;20028;-86
2023/10/17 15:00:23;;;;;;;5.57;3.78;;;;;;;;;;5088057;28;20019;-85
2023/10/17 15:02:50;;;;;;;5.50;3.30;;;;;;;;;;5060998;28;20036;-84
2023/10/17 15:05:16;;;;;;;4.70;3.28;;;;;;;;;;5069120;28;20114;-86
2023/10/17 15:07:42;;;;;;;5.82;3.38;;;;;;;;;;5066958;28;20131;-85
2023/10/17 15:10:12;;;;;;;5.68;3.42;;;;;;;;;;5052313;28;20020;-85
2023/10/17 15:12:45;;;;;;;4.95;3.45;;;;;;;;;;5077993;28;20029;-85
2023/10/17 15:15:12;;;;;;;5.22;3.50;;;;;;;;;;5053393;28;20017;-85
2023/10/17 15:17:38;;;;;;;6.95;3.50;;;;;;;;;;5053503;28;20078;-85
2023/10/17 15:20:05;;;;;;;5.55;3.08;;;;;;;;;;5061278;28;20028;-85
2023/10/17 15:22:31;;;;;;;5.20;2.97;;;;;;;;;;5072980;28;20031;-85
2023/10/17 15:24:58;;;;;;;7.93;3.40;;;;;;;;;;5078958;28;20394;-86
2023/10/17 15:27:24;;;;;;;4.20;3.03;;;;;;;;;;5082922;28;20013;-86
2023/10/17 15:29:50;;;;;;;5.75;3.45;;;;;;;;;;5067698;28;20023;-86
2023/10/17 15:32:15;;;;;;;3.85;3.10;;;;;;;;;;5082878;28;20076;-85
2023/10/17 15:34:41;;;;;;;5.10;3.40;;;;;;;;;;5097269;28;20050;-85
2023/10/17 15:37:06;;;;;;;6.25;3.15;;;;;;;;;;5078454;28;20473;-85
2023/10/17 15:39:31;;;;;;;5.93;3.75;;;;;;;;;;5098550;28;20028;-85
2023/10/17 15:41:57;;;;;;;4.28;3.20;;;;;;;;;;5080156;28;20039;-86
2023/10/17 15:44:22;;;;;;;8.27;3.50;;;;;;;;;;5099140;28;20024;-84
2023/10/17 15:46:48;;;;;;;5.45;3.90;;;;;;;;;;5077543;28;20020;-85
2023/10/17 15:49:14;;;;;;;4.32;3.13;;;;;;;;;;5078459;28;20013;-85
2023/10/17 15:51:40;;;;;;;4.07;3.17;;;;;;;;;;5077121;28;20040;-86
2023/10/17 15:54:05;;;;;;;7.05;3.42;;;;;;;;;;5087866;28;20078;-86
2023/10/17 15:56:31;;;;;;;5.80;2.70;;;;;;;;;;5090886;28;20103;-86
2023/10/17 15:59:03;;;;;;;4.53;2.95;;;;;;;;;;5063999;28;20028;-86
2023/10/17 16:01:29;;;;;;;3.90;3.08;;;;;;;;;;5077124;28;20102;-87
2023/10/17 16:03:54;;;;;;;5.28;3.13;;;;;;;;;;5064725;28;20047;-87
2023/10/17 16:06:20;;;;;;;2.75;2.30;;;;;;;;;;5072717;28;20027;-86
2023/10/17 16:08:48;;;;;;;4.50;3.00;;;;;;;;;;5060681;28;20478;-85
2023/10/17 16:11:13;;;;;;;4.32;2.70;;;;;;;;;;5059721;28;20067;-86
2023/10/17 16:13:39;;;;;;;3.28;2.40;;;;;;;;;;5058203;28;20016;-85
2023/10/17 16:16:06;;;;;;;5.65;2.63;;;;;;;;;;5059826;28;20061;-85
2023/10/17 16:18:37;;;;;;;3.72;2.63;;;;;;;;;;5073510;28;20026;-85
2023/10/17 16:21:06;;;;;;;3.83;2.80;;;;;;;;;;5057842;28;20054;-85
2023/10/17 16:23:31;;;;;;;4.30;2.88;;;;;;;;;;5074360;28;20028;-88
2023/10/17 16:25:58;;;;;;;4.57;2.92;;;;;;;;;;5077702;28;20028;-86
2023/10/17 16:28:24;;;;;;;5.32;2.60;;;;;;;;;;5078788;28;20386;-85
2023/10/17 16:30:51;;;;;;;4.05;2.85;;;;;;;;;;5070157;28;20054;-85
2023/10/17 16:33:16;;;;;;;4.38;2.80;;;;;;;;;;5063133;28;20020;-86
2023/10/17 16:35:44;;;;;;;4.70;2.83;;;;;;;;;;5078284;28;20030;-87
2023/10/17 16:38:10;;;;;;;3.80;2.20;;;;;;;;;;5068058;28;20115;-86
2023/10/17 16:40:46;;;;;;;5.65;2.70;;;;;;;;;;5060776;28;20059;-87
2023/10/17 16:43:12;;;;;;;5.00;2.33;;;;;;;;;;5064577;28;20039;-87
2023/10/17 16:45:37;;;;;;;4.88;2.75;;;;;;;;;;5076567;28;20043;-87
2023/10/17 16:48:05;;;;;;;4.80;2.47;;;;;;;;;;5064725;28;20427;-86
2023/10/17 16:50:30;;;;;;;4.60;2.55;;;;;;;;;;5055883;28;20108;-87
2023/10/17 16:52:59;;;;;;;4.45;2.63;;;;;;;;;;5095384;28;20016;-86
2023/10/17 16:55:25;;;;;;;3.78;2.83;;;;;;;;;;5094493;28;20088;-86
2023/10/17 16:57:50;;;;;;;2.85;2.00;;;;;;;;;;5080633;28;20028;-87
2023/10/17 17:00:16;;;;;;;3.20;2.42;;;;;;;;;;5068635;28;20103;-87
2023/10/17 17:02:43;;;;;;;2.75;2.30;;;;;;;;;;5061972;28;20111;-86
2023/10/17 17:05:09;;;;;;;6.20;2.80;;;;;;;;;;5067199;28;20053;-85
2023/10/17 17:07:36;;;;;;;3.92;2.50;;;;;;;;;;5063779;28;20029;-87